Time;durP1;ratioP1;P1;durP2;ratioP2;P2;SDS_P1;SDS_P2;PMS_P1;PMS_P2;Temp;Humidity;BMP_temperature;BMP_pressure;BME280_temperature;BME280_humidity;BME280_pressure;Samples;Min_cycle;Max_cycle;Signal;HPM_P1;HPM_P2
2023/06/01 00:02:03;;;;;;;13.13;7.65;;;11.60;99.90;;;;;;5059755;28;20403;-75
2023/06/01 00:04:29;;;;;;;16.42;8.57;;;11.60;99.90;;;;;;5050379;28;20559;-75
2023/06/01 00:06:54;;;;;;;18.92;8.63;;;11.60;99.90;;;;;;5064144;28;20054;-74
2023/06/01 00:09:20;;;;;;;18.02;8.38;;;11.60;99.90;;;;;;5041061;28;21088;-75
2023/06/01 00:11:49;;;;;;;17.85;8.75;;;11.60;99.90;;;;;;5057568;28;20045;-74
2023/06/01 00:14:15;;;;;;;21.05;9.15;;;11.60;99.90;;;;;;5062186;28;20051;-74
2023/06/01 00:16:41;;;;;;;16.38;8.90;;;11.60;99.90;;;;;;5064600;28;20093;-76
2023/06/01 00:19:07;;;;;;;19.92;9.68;;;11.60;99.90;;;;;;5043208;28;20037;-75
2023/06/01 00:21:35;;;;;;;19.55;8.85;;;11.60;99.90;;;;;;5060100;28;20048;-76
2023/06/01 00:24:01;;;;;;;18.40;8.70;;;11.60;99.90;;;;;;5040891;28;20048;-75
2023/06/01 00:26:27;;;;;;;19.95;8.80;;;11.60;99.90;;;;;;5061715;28;20090;-76
2023/06/01 00:28:52;;;;;;;17.13;7.80;;;11.60;99.90;;;;;;5040964;28;20044;-75
2023/06/01 00:31:18;;;;;;;20.15;7.53;;;11.60;99.90;;;;;;5063316;28;20040;-75
2023/06/01 00:33:44;;;;;;;19.75;8.30;;;11.60;99.90;;;;;;5053869;28;20229;-74
2023/06/01 00:36:09;;;;;;;16.70;7.63;;;11.60;99.90;;;;;;5051488;28;20062;-74
2023/06/01 00:38:37;;;;;;;19.27;7.10;;;11.60;99.90;;;;;;5063158;28;20068;-76
2023/06/01 00:41:03;;;;;;;17.35;7.40;;;11.60;99.90;;;;;;5059771;28;20110;-75
2023/06/01 00:43:29;;;;;;;14.98;7.47;;;11.60;99.90;;;;;;5045566;28;20533;-75
2023/06/01 00:45:54;;;;;;;19.15;6.57;;;11.50;99.90;;;;;;5060091;28;20048;-75
2023/06/01 00:48:20;;;;;;;11.88;6.10;;;11.50;99.90;;;;;;5057655;28;20484;-74
2023/06/01 00:50:47;;;;;;;12.45;5.95;;;11.50;99.90;;;;;;5064127;28;20044;-76
2023/06/01 00:53:19;;;;;;;12.05;6.07;;;11.50;99.90;;;;;;5059351;28;20045;-75
2023/06/01 00:55:48;;;;;;;11.77;5.40;;;11.50;99.90;;;;;;5061840;28;20036;-76
2023/06/01 00:58:14;;;;;;;10.43;5.43;;;11.40;99.90;;;;;;5064997;28;20495;-76
2023/06/01 01:00:41;;;;;;;19.45;6.28;;;11.40;99.90;;;;;;5054784;28;20090;-75
2023/06/01 01:03:08;;;;;;;16.08;6.28;;;11.40;99.90;;;;;;5054823;28;20051;-75
2023/06/01 01:05:38;;;;;;;12.85;5.82;;;11.40;99.90;;;;;;5066695;28;20094;-76
2023/06/01 01:08:16;;;;;;;16.33;6.35;;;11.40;99.90;;;;;;5057848;28;20128;-76
2023/06/01 01:11:09;;;;;;;16.88;6.65;;;11.40;99.90;;;;;;5042632;28;20487;-74
2023/06/01 01:13:50;;;;;;;;;;;11.40;99.90;;;;;;5060298;28;20066;-75
2023/06/01 01:16:28;;;;;;;15.63;6.60;;;11.40;99.90;;;;;;5061558;28;19928;-74
2023/06/01 01:19:06;;;;;;;16.48;6.72;;;11.50;99.90;;;;;;5055350;28;20044;-75
2023/06/01 01:21:35;;;;;;;18.00;6.70;;;11.40;99.90;;;;;;5066596;28;20752;-75
2023/06/01 01:24:11;;;;;;;16.52;7.22;;;11.40;99.90;;;;;;5066769;28;20040;-75
2023/06/01 01:26:57;;;;;;;18.08;7.38;;;11.40;99.90;;;;;;5067162;28;20052;-75
2023/06/01 01:29:25;;;;;;;15.20;8.57;;;11.40;99.90;;;;;;5085734;28;20051;-76
2023/06/01 01:31:53;;;;;;;15.30;8.02;;;11.40;99.90;;;;;;5084584;28;20568;-77
2023/06/01 01:34:20;;;;;;;16.10;7.45;;;11.40;99.90;;;;;;5087971;28;20494;-76
2023/06/01 01:36:46;;;;;;;24.48;8.20;;;11.40;99.90;;;;;;5087444;28;20127;-79
2023/06/01 01:39:12;;;;;;;17.10;8.23;;;11.40;99.90;;;;;;5107529;28;20040;-75
2023/06/01 01:41:38;;;;;;;14.07;8.70;;;11.40;99.90;;;;;;5102095;28;20421;-76
2023/06/01 01:44:05;;;;;;;15.73;7.78;;;11.50;99.90;;;;;;5088599;28;20039;-76
2023/06/01 01:46:36;;;;;;;16.23;7.72;;;11.40;99.90;;;;;;5086498;28;20059;-76
2023/06/01 01:49:11;;;;;;;15.90;6.05;;;11.40;99.90;;;;;;5100942;28;20052;-75
2023/06/01 01:51:40;;;;;;;11.48;5.85;;;11.40;99.90;;;;;;5067062;28;20050;-76
2023/06/01 01:54:07;;;;;;;15.98;8.07;;;11.30;99.90;;;;;;5071001;28;20521;-75
2023/06/01 01:56:36;;;;;;;16.75;7.50;;;11.30;99.90;;;;;;5101439;28;20104;-77
2023/06/01 01:59:04;;;;;;;13.73;7.90;;;11.30;99.90;;;;;;5103717;28;20273;-75
2023/06/01 02:01:31;;;;;;;17.00;8.10;;;11.30;99.90;;;;;;5104177;27;20407;-76
2023/06/01 02:04:07;;;;;;;17.60;9.20;;;11.30;99.90;;;;;;5102917;28;20032;-76
2023/06/01 02:06:33;;;;;;;18.27;8.88;;;11.30;99.90;;;;;;5099706;28;20051;-75
2023/06/01 02:08:59;;;;;;;14.40;8.13;;;11.30;99.90;;;;;;5103970;28;20054;-76
2023/06/01 02:11:24;;;;;;;13.55;7.93;;;11.40;99.90;;;;;;5099383;28;20031;-76
2023/06/01 02:13:50;;;;;;;22.70;9.27;;;11.40;99.90;;;;;;5102642;28;20040;-76
2023/06/01 02:16:19;;;;;;;25.30;9.32;;;11.40;99.90;;;;;;5099896;28;20131;-76
2023/06/01 02:18:45;;;;;;;16.45;7.95;;;11.40;99.90;;;;;;5061761;28;20078;-75
2023/06/01 02:21:13;;;;;;;14.68;6.85;;;11.40;99.90;;;;;;5085961;28;20585;-75
2023/06/01 02:23:39;;;;;;;19.27;7.05;;;11.40;99.90;;;;;;5102066;28;20055;-76
2023/06/01 02:26:06;;;;;;;15.70;7.07;;;11.40;99.90;;;;;;5094543;28;20043;-76
2023/06/01 02:28:32;;;;;;;17.52;7.55;;;11.40;99.90;;;;;;5086680;28;20055;-74
2023/06/01 02:30:57;;;;;;;14.75;6.97;;;11.40;99.90;;;;;;5083458;28;20048;-75
2023/06/01 02:33:24;;;;;;;13.35;6.43;;;11.40;99.90;;;;;;5086072;28;20051;-76
2023/06/01 02:35:50;;;;;;;14.82;6.50;;;11.40;99.90;;;;;;5102219;28;20048;-76
2023/06/01 02:38:16;;;;;;;16.77;6.22;;;11.40;99.90;;;;;;5081863;28;20048;-76
2023/06/01 02:40:42;;;;;;;16.35;6.07;;;11.30;99.90;;;;;;5102180;28;20042;-75
2023/06/01 02:43:08;;;;;;;16.17;5.38;;;11.30;99.90;;;;;;5102334;28;20548;-74
2023/06/01 02:45:34;;;;;;;14.38;6.38;;;11.30;99.90;;;;;;5099735;28;20089;-76
2023/06/01 02:47:59;;;;;;;14.85;7.00;;;11.30;99.90;;;;;;5074185;28;20436;-76
2023/06/01 02:50:26;;;;;;;12.38;6.55;;;11.30;99.90;;;;;;5084504;28;20100;-76
2023/06/01 02:52:51;;;;;;;12.10;6.38;;;11.30;99.90;;;;;;5104424;28;20043;-76
2023/06/01 02:55:17;;;;;;;11.48;6.00;;;11.30;99.90;;;;;;5069573;28;20451;-74
2023/06/01 02:57:43;;;;;;;15.73;6.28;;;11.30;99.90;;;;;;5078989;28;20040;-75
2023/06/01 03:00:15;;;;;;;16.30;6.88;;;11.30;99.90;;;;;;5087863;28;20067;-76
2023/06/01 03:02:47;;;;;;;15.18;6.57;;;11.40;99.90;;;;;;5087862;28;20039;-76
2023/06/01 03:05:14;;;;;;;16.48;6.38;;;11.40;99.90;;;;;;5108854;28;20062;-76
2023/06/01 03:07:46;;;;;;;17.48;6.07;;;11.30;99.90;;;;;;5102337;28;20031;-75
2023/06/01 03:10:12;;;;;;;11.40;4.53;;;11.40;99.90;;;;;;5103173;27;20040;-75
2023/06/01 03:12:39;;;;;;;10.63;4.68;;;11.30;99.90;;;;;;5102958;28;20043;-76
2023/06/01 03:15:05;;;;;;;13.68;4.38;;;11.30;99.90;;;;;;5107202;28;20073;-75
2023/06/01 03:17:32;;;;;;;7.63;4.07;;;11.30;99.90;;;;;;5083563;28;20073;-75
2023/06/01 03:19:58;;;;;;;14.07;4.40;;;11.30;99.90;;;;;;5101840;28;20551;-76
2023/06/01 03:22:24;;;;;;;8.52;3.88;;;11.30;99.90;;;;;;5082460;28;20051;-76
2023/06/01 03:24:50;;;;;;;9.68;4.00;;;11.30;99.90;;;;;;5088504;28;20040;-77
2023/06/01 03:27:19;;;;;;;12.82;4.28;;;11.30;99.90;;;;;;5105333;28;20104;-75
2023/06/01 03:29:48;;;;;;;11.05;4.55;;;11.30;99.90;;;;;;5085703;28;20078;-76
2023/06/01 03:32:14;;;;;;;12.10;4.32;;;11.30;99.90;;;;;;5101640;28;20506;-75
2023/06/01 03:34:41;;;;;;;11.70;4.57;;;11.30;99.90;;;;;;5108428;28;20066;-76
2023/06/01 03:37:07;;;;;;;12.48;5.57;;;11.40;99.90;;;;;;5068639;28;20039;-77
2023/06/01 03:39:34;;;;;;;13.52;4.82;;;11.40;99.90;;;;;;5067875;28;20070;-76
2023/06/01 03:42:00;;;;;;;7.75;4.03;;;11.40;99.90;;;;;;5049519;28;20344;-77
2023/06/01 03:44:26;;;;;;;9.25;4.05;;;11.40;99.90;;;;;;5067257;28;20777;-76
2023/06/01 03:46:51;;;;;;;9.55;4.50;;;11.40;99.90;;;;;;5095985;28;20102;-77
2023/06/01 03:49:18;;;;;;;13.20;4.13;;;11.40;99.90;;;;;;5079556;28;20459;-77
2023/06/01 03:51:43;;;;;;;7.88;3.50;;;11.40;99.90;;;;;;5103231;28;20043;-76
2023/06/01 03:54:09;;;;;;;9.27;4.18;;;11.40;99.90;;;;;;5096232;28;20104;-75
2023/06/01 03:56:35;;;;;;;10.95;4.28;;;11.40;99.90;;;;;;5080826;28;20059;-76
2023/06/01 03:59:01;;;;;;;10.65;4.10;;;11.40;99.90;;;;;;5083609;28;20056;-76
2023/06/01 04:01:29;;;;;;;10.13;3.92;;;11.40;99.90;;;;;;5097516;28;20065;-76
2023/06/01 04:03:56;;;;;;;11.73;4.60;;;11.40;99.90;;;;;;5076384;28;20096;-76
2023/06/01 04:06:23;;;;;;;8.25;4.18;;;11.40;99.90;;;;;;5102712;28;20058;-77
2023/06/01 04:08:55;;;;;;;12.75;3.95;;;11.40;99.90;;;;;;5104802;28;20122;-76
2023/06/01 04:11:22;;;;;;;10.20;4.57;;;11.40;99.90;;;;;;5076127;28;20040;-77
2023/06/01 04:13:47;;;;;;;9.70;4.25;;;11.40;99.90;;;;;;5100420;28;20044;-75
2023/06/01 04:16:18;;;;;;;10.18;4.53;;;11.50;99.90;;;;;;5085116;28;20092;-75
2023/06/01 04:18:44;;;;;;;9.73;3.60;;;11.40;99.90;;;;;;5078989;28;20044;-75
2023/06/01 04:21:10;;;;;;;9.20;4.32;;;11.50;99.90;;;;;;5096317;28;20073;-75
2023/06/01 04:23:37;;;;;;;11.38;4.28;;;11.40;99.90;;;;;;5085160;28;20040;-77
2023/06/01 04:26:03;;;;;;;10.25;4.10;;;11.40;99.90;;;;;;5066101;28;20108;-76
2023/06/01 04:28:29;;;;;;;12.10;4.22;;;11.50;99.90;;;;;;5097052;28;20072;-75
2023/06/01 04:30:56;;;;;;;13.45;4.75;;;11.50;99.90;;;;;;5102236;28;20043;-76
2023/06/01 04:33:24;;;;;;;15.75;5.07;;;11.50;99.90;;;;;;5101599;28;20052;-76
2023/06/01 04:35:52;;;;;;;11.38;4.18;;;11.50;99.90;;;;;;5097116;28;20502;-77
2023/06/01 04:38:24;;;;;;;13.82;4.90;;;11.50;99.90;;;;;;5100074;28;20038;-77
2023/06/01 04:40:53;;;;;;;12.85;4.45;;;11.60;99.90;;;;;;5082146;28;20047;-77
2023/06/01 04:43:19;;;;;;;12.40;4.00;;;11.60;99.90;;;;;;5102294;28;20040;-76
2023/06/01 04:45:46;;;;;;;13.98;4.70;;;11.60;99.90;;;;;;5068126;28;20060;-76
2023/06/01 04:48:12;;;;;;;13.13;5.68;;;11.60;99.90;;;;;;5088403;28;20130;-77
2023/06/01 04:50:37;;;;;;;10.23;3.95;;;11.60;99.90;;;;;;5086158;28;20044;-75
2023/06/01 04:53:03;;;;;;;11.35;4.50;;;11.60;99.90;;;;;;5069583;28;20100;-76
2023/06/01 04:55:30;;;;;;;11.27;3.90;;;11.60;99.90;;;;;;5072205;28;20135;-75
2023/06/01 04:57:56;;;;;;;8.57;3.20;;;11.60;99.90;;;;;;5075216;28;20035;-76
2023/06/01 05:00:22;;;;;;;8.60;3.78;;;11.60;99.90;;;;;;5086563;28;20036;-76
2023/06/01 05:02:49;;;;;;;10.30;4.10;;;11.60;99.90;;;;;;5102321;28;20066;-76
2023/06/01 05:05:17;;;;;;;9.40;3.75;;;11.70;99.90;;;;;;5102319;28;20051;-76
2023/06/01 05:07:43;;;;;;;8.95;3.30;;;11.60;99.90;;;;;;5084584;28;20052;-75
2023/06/01 05:10:11;;;;;;;9.45;3.72;;;11.70;99.90;;;;;;5098301;28;20115;-76
2023/06/01 05:12:37;;;;;;;11.00;4.15;;;11.70;99.90;;;;;;5095146;28;20126;-76
2023/06/01 05:15:05;;;;;;;10.25;3.88;;;11.70;99.90;;;;;;5096403;28;20047;-73
2023/06/01 05:17:31;;;;;;;9.18;3.72;;;11.80;99.90;;;;;;5083021;28;20231;-81
2023/06/01 05:19:57;;;;;;;10.90;3.90;;;11.80;99.90;;;;;;5080986;28;20039;-80
2023/06/01 05:22:23;;;;;;;10.20;4.07;;;11.80;99.90;;;;;;5084309;28;21459;-80
2023/06/01 05:24:49;;;;;;;12.40;4.78;;;11.80;99.90;;;;;;5102547;28;20075;-81
2023/06/01 05:27:18;;;;;;;11.90;4.20;;;11.90;99.90;;;;;;5081711;28;20044;-81
2023/06/01 05:29:44;;;;;;;15.77;4.47;;;11.90;99.90;;;;;;5085894;28;20067;-78
2023/06/01 05:32:10;;;;;;;11.15;4.03;;;11.90;99.90;;;;;;5100035;28;20095;-79
2023/06/01 05:34:35;;;;;;;10.60;4.95;;;11.90;99.90;;;;;;5088561;28;20146;-77
2023/06/01 05:37:01;;;;;;;10.27;4.63;;;11.90;99.90;;;;;;5102696;28;20056;-82
2023/06/01 05:39:28;;;;;;;7.63;4.35;;;12.00;99.90;;;;;;5082575;28;20039;-83
2023/06/01 05:41:57;;;;;;;11.45;4.10;;;12.00;99.90;;;;;;5080096;28;20035;-76
2023/06/01 05:44:24;;;;;;;15.27;4.20;;;12.00;99.90;;;;;;5084593;28;20376;-79
2023/06/01 05:46:51;;;;;;;14.05;5.03;;;12.00;99.90;;;;;;5110330;28;20067;-75
2023/06/01 05:49:17;;;;;;;11.65;4.35;;;12.10;99.90;;;;;;5087292;28;20119;-77
2023/06/01 05:51:42;;;;;;;11.60;4.10;;;12.10;99.90;;;;;;5098381;28;20043;-77
2023/06/01 05:54:09;;;;;;;10.65;4.32;;;12.10;99.90;;;;;;5065430;28;20035;-75
2023/06/01 05:56:37;;;;;;;14.15;4.20;;;12.10;99.90;;;;;;5105601;28;20136;-76
2023/06/01 05:59:03;;;;;;;12.18;4.13;;;12.10;99.90;;;;;;5107408;27;20051;-77
2023/06/01 06:01:29;;;;;;;14.85;4.32;;;12.10;99.90;;;;;;5089452;28;20043;-76
2023/06/01 06:03:55;;;;;;;10.13;4.20;;;12.20;99.90;;;;;;5109227;28;20209;-76
2023/06/01 06:06:22;;;;;;;19.08;5.22;;;12.20;99.90;;;;;;5101981;28;20268;-75
2023/06/01 06:08:48;;;;;;;10.70;4.43;;;12.20;99.90;;;;;;5069922;28;20047;-78
2023/06/01 06:11:14;;;;;;;12.30;4.13;;;12.20;99.90;;;;;;5104649;27;20113;-81
2023/06/01 06:13:39;;;;;;;10.43;3.83;;;12.30;99.90;;;;;;5088225;28;20071;-78
2023/06/01 06:16:05;;;;;;;14.23;4.03;;;12.30;99.90;;;;;;5084094;28;20032;-76
2023/06/01 06:18:31;;;;;;;13.35;4.15;;;12.30;99.90;;;;;;5087791;28;20051;-77
2023/06/01 06:20:56;;;;;;;13.65;4.50;;;12.30;99.90;;;;;;5090814;28;20510;-76
2023/06/01 06:23:23;;;;;;;15.10;4.85;;;12.30;99.90;;;;;;5107308;28;20066;-77
2023/06/01 06:25:49;;;;;;;7.43;4.03;;;12.40;99.90;;;;;;5104543;28;20069;-77
2023/06/01 06:28:15;;;;;;;9.60;3.90;;;12.40;99.90;;;;;;5086524;28;20036;-77
2023/06/01 06:30:41;;;;;;;10.95;3.78;;;12.40;99.90;;;;;;5072192;28;20519;-77
2023/06/01 06:33:07;;;;;;;10.38;3.80;;;12.50;99.90;;;;;;5090106;28;20527;-76
2023/06/01 06:35:32;;;;;;;8.77;4.07;;;12.50;99.90;;;;;;5086777;28;20032;-76
2023/06/01 06:37:58;;;;;;;11.98;4.00;;;12.50;99.90;;;;;;5101626;28;20039;-77
2023/06/01 06:40:24;;;;;;;10.35;4.07;;;12.50;99.90;;;;;;5103768;28;20482;-76
2023/06/01 06:42:50;;;;;;;13.23;3.78;;;12.50;99.90;;;;;;5109484;28;20058;-76
2023/06/01 06:45:18;;;;;;;9.98;3.70;;;12.50;99.90;;;;;;5082321;28;20556;-77
2023/06/01 06:47:45;;;;;;;6.88;3.10;;;12.50;99.90;;;;;;5107248;28;20646;-77
2023/06/01 06:50:13;;;;;;;10.80;3.75;;;12.50;99.90;;;;;;5085124;28;20036;-76
2023/06/01 06:52:39;;;;;;;8.02;3.90;;;12.60;99.90;;;;;;5106139;28;20031;-75
2023/06/01 06:55:06;;;;;;;7.60;3.42;;;12.60;99.90;;;;;;5107970;28;20448;-75
2023/06/01 06:57:33;;;;;;;9.18;3.20;;;12.70;99.90;;;;;;5060480;28;20521;-76
2023/06/01 06:59:59;;;;;;;9.00;2.78;;;12.70;99.90;;;;;;5065544;28;20035;-76
2023/06/01 07:02:26;;;;;;;9.25;2.70;;;12.70;99.90;;;;;;5076423;28;20407;-76
2023/06/01 07:04:51;;;;;;;8.23;3.85;;;12.70;99.90;;;;;;5072054;28;20528;-78
2023/06/01 07:07:17;;;;;;;9.18;2.85;;;12.80;99.90;;;;;;5087382;28;20031;-77
2023/06/01 07:09:43;;;;;;;9.82;3.28;;;12.70;99.90;;;;;;5102577;28;20444;-77
2023/06/01 07:12:08;;;;;;;9.38;3.00;;;12.70;99.90;;;;;;5085195;28;20158;-77
2023/06/01 07:14:34;;;;;;;11.32;2.95;;;12.80;99.90;;;;;;5089558;28;20040;-78
2023/06/01 07:17:00;;;;;;;7.00;2.67;;;12.80;99.90;;;;;;5088305;28;20434;-76
2023/06/01 07:19:32;;;;;;;7.30;2.45;;;12.80;99.90;;;;;;5097843;27;20047;-75
2023/06/01 07:21:59;;;;;;;8.10;3.53;;;12.80;99.90;;;;;;5075605;28;20047;-77
2023/06/01 07:24:26;;;;;;;7.97;2.78;;;12.80;99.90;;;;;;5099517;28;20035;-77
2023/06/01 07:26:53;;;;;;;7.18;2.45;;;12.80;99.90;;;;;;5082717;28;20044;-76
2023/06/01 07:29:20;;;;;;;8.38;3.38;;;12.80;99.90;;;;;;5070438;28;20039;-77
2023/06/01 07:31:46;;;;;;;9.55;3.08;;;12.90;99.90;;;;;;5088753;28;20035;-80
2023/06/01 07:34:12;;;;;;;4.55;2.70;;;12.90;99.90;;;;;;5087871;28;20044;-77
2023/06/01 07:36:40;;;;;;;7.18;2.72;;;12.90;99.90;;;;;;5078395;28;20168;-76
2023/06/01 07:39:06;;;;;;;7.28;3.25;;;12.90;99.90;;;;;;5092672;28;20093;-76
2023/06/01 07:41:33;;;;;;;9.38;3.45;;;13.00;99.90;;;;;;5103911;28;20074;-76
2023/06/01 07:43:58;;;;;;;5.28;2.55;;;13.00;99.90;;;;;;5105072;28;20494;-77
2023/06/01 07:46:24;;;;;;;6.05;2.22;;;13.00;99.90;;;;;;5101083;28;20051;-76
2023/06/01 07:48:50;;;;;;;9.15;2.83;;;12.90;99.90;;;;;;5099354;28;20043;-77
2023/06/01 07:51:19;;;;;;;5.80;2.38;;;12.80;99.90;;;;;;5078575;28;20039;-78
2023/06/01 07:53:44;;;;;;;9.18;3.13;;;12.80;99.90;;;;;;5102298;28;20257;-77
2023/06/01 07:56:10;;;;;;;8.18;2.88;;;12.70;99.90;;;;;;5085551;28;20047;-77
2023/06/01 07:58:36;;;;;;;8.52;2.95;;;12.70;99.90;;;;;;5107868;28;20187;-75
2023/06/01 08:01:02;;;;;;;8.40;2.70;;;12.80;99.90;;;;;;5066810;28;20044;-77
2023/06/01 08:03:28;;;;;;;7.45;2.42;;;12.80;99.90;;;;;;5102080;28;20414;-77
2023/06/01 08:05:58;;;;;;;8.20;3.15;;;12.90;99.90;;;;;;5102181;28;20032;-77
2023/06/01 08:08:24;;;;;;;8.00;2.50;;;12.90;99.90;;;;;;5094801;28;20048;-76
2023/06/01 08:10:51;;;;;;;8.98;2.58;;;13.00;99.90;;;;;;5096114;28;20108;-76
2023/06/01 08:13:18;;;;;;;6.82;2.55;;;13.00;99.90;;;;;;5091341;28;20039;-75
2023/06/01 08:15:47;;;;;;;11.30;3.20;;;13.00;99.90;;;;;;5098763;27;20050;-76
2023/06/01 08:18:14;;;;;;;8.60;3.25;;;13.00;99.90;;;;;;5101611;28;20093;-75
2023/06/01 08:20:39;;;;;;;11.73;3.42;;;12.90;99.90;;;;;;5102637;28;20043;-76
2023/06/01 08:23:05;;;;;;;14.23;3.90;;;12.90;99.90;;;;;;5082801;28;20557;-74
2023/06/01 08:25:31;;;;;;;14.93;4.50;;;12.90;99.90;;;;;;5082977;28;20438;-75
2023/06/01 08:27:57;;;;;;;12.13;4.00;;;12.90;99.90;;;;;;5093687;28;20040;-75
2023/06/01 08:30:25;;;;;;;15.77;4.32;;;12.80;99.90;;;;;;5057551;28;20047;-74
2023/06/01 08:32:51;;;;;;;14.52;4.28;;;12.90;99.90;;;;;;5082189;28;20046;-75
2023/06/01 08:35:18;;;;;;;13.75;3.67;;;12.90;99.90;;;;;;5085448;28;20081;-75
2023/06/01 08:37:44;;;;;;;11.43;3.45;;;12.90;99.90;;;;;;5052523;28;20040;-75
2023/06/01 08:40:10;;;;;;;9.70;3.45;;;12.90;99.90;;;;;;5069115;28;20039;-74
2023/06/01 08:42:48;;;;;;;14.07;4.15;;;13.00;99.90;;;;;;5088526;28;20062;-75
2023/06/01 08:45:14;;;;;;;15.15;3.95;;;13.10;99.90;;;;;;5099989;28;20051;-76
2023/06/01 08:47:41;;;;;;;12.20;4.03;;;13.10;99.90;;;;;;5094029;28;20044;-76
2023/06/01 08:50:10;;;;;;;9.70;3.88;;;13.20;99.90;;;;;;5087088;28;20042;-75
2023/06/01 08:52:37;;;;;;;14.20;4.18;;;13.30;99.90;;;;;;5102234;28;20447;-75
2023/06/01 08:55:03;;;;;;;13.23;3.78;;;13.30;99.90;;;;;;5098041;28;20286;-75
2023/06/01 08:57:30;;;;;;;13.65;5.03;;;13.30;99.90;;;;;;5103721;28;20133;-75
2023/06/01 08:59:57;;;;;;;14.23;4.40;;;13.30;99.90;;;;;;5094623;28;20498;-75
2023/06/01 09:02:23;;;;;;;14.48;3.97;;;13.40;99.90;;;;;;5096238;28;20128;-74
2023/06/01 09:04:50;;;;;;;10.63;3.70;;;13.50;99.90;;;;;;5078590;28;20498;-75
2023/06/01 09:07:19;;;;;;;12.70;4.20;;;13.50;99.90;;;;;;5064052;28;20051;-75
2023/06/01 09:09:48;;;;;;;13.35;4.00;;;13.50;99.90;;;;;;5083750;28;20043;-75
2023/06/01 09:12:19;;;;;;;12.90;4.20;;;13.50;99.90;;;;;;5083796;28;20047;-76
2023/06/01 09:14:48;;;;;;;13.32;4.10;;;13.50;99.90;;;;;;5079381;28;20139;-74
2023/06/01 09:17:21;;;;;;;11.90;3.55;;;13.50;99.90;;;;;;5081959;28;20032;-75
2023/06/01 09:19:46;;;;;;;;;;;13.50;99.90;;;;;;5100195;28;20051;-75
2023/06/01 09:22:12;;;;;;;15.35;3.95;;;13.50;99.90;;;;;;5079738;28;19924;-75
2023/06/01 09:24:40;;;;;;;15.75;4.20;;;13.50;99.90;;;;;;5086216;28;20394;-75
2023/06/01 09:27:07;;;;;;;13.10;4.13;;;13.50;99.90;;;;;;5064502;28;20043;-76
2023/06/01 09:29:32;;;;;;;10.63;3.72;;;13.50;99.90;;;;;;5109376;28;20040;-75
2023/06/01 09:32:00;;;;;;;14.68;3.97;;;13.50;99.90;;;;;;5072477;28;20100;-76
2023/06/01 09:34:26;;;;;;;12.25;3.95;;;13.60;99.90;;;;;;5105087;28;20047;-76
2023/06/01 09:36:53;;;;;;;14.05;4.03;;;13.50;99.90;;;;;;5096337;28;20690;-75
2023/06/01 09:39:24;;;;;;;12.25;3.80;;;13.50;99.90;;;;;;5096879;28;20043;-73
2023/06/01 09:41:55;;;;;;;9.45;3.38;;;13.60;99.90;;;;;;5089159;28;20044;-71
2023/06/01 09:44:29;;;;;;;9.02;3.53;;;13.70;99.90;;;;;;5099072;28;20412;-72
2023/06/01 09:47:02;;;;;;;10.18;3.40;;;13.80;99.90;;;;;;5102968;28;20271;-71
2023/06/01 09:49:50;;;;;;;13.00;3.92;;;13.80;99.90;;;;;;5099159;28;20135;-73
2023/06/01 09:52:17;;;;;;;13.82;4.00;;;13.90;99.90;;;;;;5098268;28;20063;-73
2023/06/01 09:54:50;;;;;;;10.48;3.70;;;13.90;99.90;;;;;;5083863;28;20567;-72
2023/06/01 09:57:29;;;;;;;14.60;4.05;;;13.90;99.90;;;;;;5087629;28;20043;-73
2023/06/01 09:59:55;;;;;;;9.45;3.88;;;13.90;99.90;;;;;;5102465;28;20038;-72
2023/06/01 10:02:22;;;;;;;11.70;4.18;;;13.90;99.90;;;;;;5108425;28;20047;-72
2023/06/01 10:04:53;;;;;;;13.75;4.00;;;13.90;99.90;;;;;;5099822;28;20036;-72
2023/06/01 10:07:20;;;;;;;11.02;3.42;;;14.00;99.90;;;;;;5099648;28;20079;-72
2023/06/01 10:09:53;;;;;;;15.70;3.58;;;14.00;99.90;;;;;;5105185;28;20395;-71
2023/06/01 10:12:19;;;;;;;12.77;3.95;;;14.00;99.90;;;;;;5096920;27;20039;-72
2023/06/01 10:14:45;;;;;;;10.98;3.97;;;14.00;99.90;;;;;;5099547;27;20097;-73
2023/06/01 10:17:16;;;;;;;12.07;3.50;;;14.00;99.90;;;;;;5071807;28;20047;-73
2023/06/01 10:19:43;;;;;;;12.10;3.58;;;14.00;99.90;;;;;;5099690;28;20048;-72
2023/06/01 10:22:10;;;;;;;18.00;4.00;;;14.10;99.90;;;;;;5099011;28;20040;-71
2023/06/01 10:24:40;;;;;;;11.48;4.03;;;14.10;99.90;;;;;;5081628;28;20093;-72
2023/06/01 10:27:33;;;;;;;12.20;4.03;;;14.10;99.90;;;;;;5094934;28;20081;-73
2023/06/01 10:29:59;;;;;;;15.38;3.50;;;14.10;99.90;;;;;;5079999;28;20047;-72
2023/06/01 10:32:40;;;;;;;10.85;4.15;;;14.10;99.90;;;;;;5099477;28;21023;-72
2023/06/01 10:35:06;;;;;;;12.50;3.70;;;14.10;99.90;;;;;;5089505;28;20502;-72
2023/06/01 10:37:33;;;;;;;11.88;3.45;;;14.10;99.90;;;;;;5096102;28;20060;-72
2023/06/01 10:40:34;;;;;;;6.63;3.30;;;14.20;99.90;;;;;;5103912;28;20399;-72
2023/06/01 10:43:00;;;;;;;10.93;3.75;;;14.20;99.90;;;;;;5078153;28;20552;-71
2023/06/01 10:45:41;;;;;;;11.88;3.33;;;14.30;99.90;;;;;;5078638;28;20047;-71
2023/06/01 10:48:10;;;;;;;15.10;3.88;;;14.30;99.90;;;;;;5102374;28;20051;-73
2023/06/01 10:50:37;;;;;;;9.13;3.50;;;14.40;99.90;;;;;;5084067;28;20130;-72
2023/06/01 10:53:30;;;;;;;18.38;4.75;;;14.50;99.90;;;;;;5104863;28;20047;-72
2023/06/01 10:56:20;;;;;;;9.90;3.30;;;14.50;99.90;;;;;;5087699;28;20524;-72
2023/06/01 10:59:07;;;;;;;11.02;3.45;;;14.50;99.90;;;;;;5067698;28;20035;-73
2023/06/01 11:01:38;;;;;;;10.50;3.33;;;14.60;99.90;;;;;;5068416;28;20039;-73
2023/06/01 11:04:05;;;;;;;12.25;4.15;;;14.60;99.90;;;;;;5106807;27;20524;-72
2023/06/01 11:06:37;;;;;;;9.93;3.65;;;14.60;99.90;;;;;;5106934;28;20078;-74
2023/06/01 11:09:05;;;;;;;9.88;4.00;;;14.60;99.90;;;;;;5105579;28;20043;-72
2023/06/01 11:11:58;;;;;;;9.60;3.88;;;14.60;99.90;;;;;;5108946;27;20093;-72
2023/06/01 11:14:25;;;;;;;15.60;3.90;;;14.70;99.90;;;;;;5058997;28;20050;-72
2023/06/01 11:16:55;;;;;;;8.10;3.58;;;14.80;99.90;;;;;;5108826;28;20043;-72
2023/06/01 11:19:24;;;;;;;13.45;3.88;;;14.80;99.90;;;;;;5081261;28;20200;-72
2023/06/01 11:22:01;;;;;;;14.35;4.13;;;14.80;99.90;;;;;;5094325;28;20052;-73
2023/06/01 11:24:35;;;;;;;7.75;3.25;;;14.80;99.90;;;;;;5099529;28;20177;-72
2023/06/01 11:27:09;;;;;;;10.25;4.25;;;14.80;99.90;;;;;;5103119;28;20058;-72
2023/06/01 11:29:34;;;;;;;9.57;2.88;;;14.70;99.90;;;;;;5110088;28;20056;-72
2023/06/01 11:32:03;;;;;;;7.93;2.33;;;14.60;99.90;;;;;;5084460;28;20471;-72
2023/06/01 11:34:41;;;;;;;9.77;2.88;;;14.70;99.90;;;;;;5088191;28;20040;-72
2023/06/01 11:37:18;;;;;;;7.13;2.65;;;14.70;99.90;;;;;;5098028;28;20679;-73
2023/06/01 11:39:45;;;;;;;9.77;2.38;;;14.60;99.90;;;;;;5080622;28;20047;-73
2023/06/01 11:42:19;;;;;;;10.18;2.50;;;14.70;99.90;;;;;;5079533;28;20051;-76
2023/06/01 11:44:55;;;;;;;6.03;2.20;;;14.70;99.90;;;;;;5079530;28;20573;-73
2023/06/01 11:47:21;;;;;;;8.50;2.55;;;14.70;99.90;;;;;;5104077;28;20059;-76
2023/06/01 11:49:51;;;;;;;8.00;2.35;;;14.70;99.90;;;;;;5100665;28;20077;-74
2023/06/01 11:52:18;;;;;;;5.25;2.08;;;14.80;99.90;;;;;;5066186;28;20035;-75
2023/06/01 11:54:44;;;;;;;6.82;2.00;;;14.80;99.90;;;;;;5088538;28;20451;-74
2023/06/01 11:57:10;;;;;;;10.55;2.97;;;14.90;99.90;;;;;;5085567;28;20040;-75
2023/06/01 11:59:42;;;;;;;10.05;2.50;;;14.90;99.90;;;;;;5086685;28;20092;-75
2023/06/01 12:02:21;;;;;;;9.57;2.83;;;14.80;99.90;;;;;;5102670;28;20268;-74
2023/06/01 12:05:08;;;;;;;7.25;2.65;;;14.80;99.90;;;;;;5081969;28;20066;-75
2023/06/01 12:07:47;;;;;;;5.55;2.20;;;14.90;99.90;;;;;;5089945;28;20059;-74
2023/06/01 12:10:18;;;;;;;8.57;2.53;;;14.90;99.90;;;;;;5084866;28;20410;-74
2023/06/01 12:12:44;;;;;;;6.78;2.60;;;14.90;99.90;;;;;;5098806;27;20101;-75
2023/06/01 12:15:20;;;;;;;8.70;2.60;;;14.80;99.90;;;;;;5085719;28;20439;-76
2023/06/01 12:17:54;;;;;;;13.35;3.10;;;14.80;99.90;;;;;;5099491;28;20055;-74
2023/06/01 12:20:30;;;;;;;6.18;2.42;;;14.70;99.90;;;;;;5085863;28;20679;-74
2023/06/01 12:23:03;;;;;;;5.60;2.33;;;14.70;99.90;;;;;;5084418;28;20040;-73
2023/06/01 12:25:31;;;;;;;9.10;2.15;;;14.70;99.90;;;;;;5080975;28;20040;-74
2023/06/01 12:28:00;;;;;;;6.03;2.70;;;14.80;99.90;;;;;;5085075;28;20047;-73
2023/06/01 12:30:26;;;;;;;7.53;2.28;;;14.80;99.90;;;;;;5099313;28;20502;-78
2023/06/01 12:32:51;;;;;;;8.10;2.78;;;14.80;99.90;;;;;;5088264;28;20132;-74
2023/06/01 12:35:17;;;;;;;7.95;2.13;;;14.90;99.90;;;;;;5072556;28;20069;-76
2023/06/01 12:37:43;;;;;;;7.45;2.53;;;14.90;99.90;;;;;;5064503;28;20047;-74
2023/06/01 12:40:09;;;;;;;12.38;3.10;;;14.90;99.90;;;;;;5061882;28;20040;-74
2023/06/01 12:42:37;;;;;;;10.65;2.92;;;14.90;99.90;;;;;;5085633;28;20087;-73
2023/06/01 12:45:03;;;;;;;13.13;3.25;;;14.90;99.90;;;;;;5085246;28;20054;-74
2023/06/01 12:47:39;;;;;;;8.27;2.40;;;14.80;99.90;;;;;;5102469;28;20047;-74